createdAt,value
2018-09-28T00:00:15.854Z,99.90
2018-09-28T00:02:44.542Z,99.90
2018-09-28T00:05:12.266Z,99.90
2018-09-28T00:07:40.189Z,99.90
2018-09-28T00:10:07.933Z,99.90
2018-09-28T00:12:35.746Z,99.90
2018-09-28T00:15:03.482Z,99.90
2018-09-28T00:17:31.240Z,99.90
2018-09-28T00:19:58.966Z,99.90
2018-09-28T00:22:26.717Z,99.90
2018-09-28T00:24:54.453Z,99.90
2018-09-28T00:27:22.223Z,99.90
2018-09-28T00:29:49.993Z,99.90
2018-09-28T00:32:18.282Z,99.90
2018-09-28T00:34:46.046Z,99.90
2018-09-28T00:37:13.766Z,99.90
2018-09-28T00:39:41.553Z,99.90
2018-09-28T00:42:09.281Z,99.90
2018-09-28T00:44:37.145Z,99.90
2018-09-28T00:47:04.947Z,99.90
2018-09-28T00:49:32.738Z,99.90
2018-09-28T00:52:00.477Z,99.90
2018-09-28T00:54:28.238Z,99.90
2018-09-28T00:56:55.957Z,99.90
2018-09-28T00:59:23.715Z,99.90
2018-09-28T01:01:51.433Z,99.90
2018-09-28T01:04:19.208Z,99.90
2018-09-28T01:06:46.942Z,99.90
2018-09-28T01:09:15.713Z,99.90
2018-09-28T01:11:43.734Z,99.90
2018-09-28T01:14:11.533Z,99.90
2018-09-28T01:16:39.278Z,99.90
2018-09-28T01:19:07.038Z,99.90
2018-09-28T01:21:34.813Z,99.90
2018-09-28T01:24:02.569Z,99.90
2018-09-28T01:26:30.313Z,99.90
2018-09-28T01:28:58.074Z,99.90
2018-09-28T01:31:25.826Z,99.90
2018-09-28T01:33:53.585Z,99.90
2018-09-28T01:36:21.326Z,99.90
2018-09-28T01:38:49.149Z,99.90
2018-09-28T01:41:16.890Z,99.90
2018-09-28T01:43:44.620Z,99.90
2018-09-28T01:46:12.453Z,99.90
2018-09-28T01:48:40.172Z,99.90
2018-09-28T01:51:07.942Z,99.90
2018-09-28T01:53:35.665Z,99.90
2018-09-28T01:56:03.433Z,99.90
2018-09-28T01:58:31.205Z,99.90
2018-09-28T02:00:58.973Z,99.90
2018-09-28T02:03:27.049Z,99.90
2018-09-28T02:05:54.814Z,99.90
2018-09-28T02:08:22.528Z,99.90
2018-09-28T02:10:50.269Z,99.90
2018-09-28T02:13:18.022Z,99.90
2018-09-28T02:15:45.825Z,99.90
2018-09-28T02:18:13.514Z,99.90
2018-09-28T02:20:41.267Z,99.90
2018-09-28T02:23:09.041Z,99.90
2018-09-28T02:25:36.782Z,99.90
2018-09-28T02:28:04.587Z,99.90
2018-09-28T02:30:32.302Z,99.90
2018-09-28T02:33:00.054Z,99.90
2018-09-28T02:35:27.788Z,99.90
2018-09-28T02:37:55.529Z,99.90
2018-09-28T02:40:23.269Z,99.90
2018-09-28T02:42:51.761Z,99.90
2018-09-28T02:45:19.513Z,99.90
2018-09-28T02:47:47.334Z,99.90
2018-09-28T02:50:15.074Z,99.90
2018-09-28T02:52:42.871Z,99.90
2018-09-28T02:55:10.609Z,99.90
2018-09-28T02:57:38.382Z,99.90
2018-09-28T03:00:06.210Z,99.90
2018-09-28T03:02:34.166Z,99.90
2018-09-28T03:05:02.049Z,99.90
2018-09-28T03:07:29.816Z,99.90
2018-09-28T03:09:57.770Z,99.90
2018-09-28T03:12:25.484Z,99.90
2018-09-28T03:14:53.479Z,99.90
2018-09-28T03:17:21.229Z,99.90
2018-09-28T03:19:49.025Z,99.90
2018-09-28T03:22:16.762Z,99.90
2018-09-28T03:24:44.529Z,99.90
2018-09-28T03:27:12.299Z,99.90
2018-09-28T03:29:40.093Z,99.90
2018-09-28T03:32:08.426Z,99.90
2018-09-28T03:34:36.214Z,99.90
2018-09-28T03:37:05.066Z,99.90
2018-09-28T03:39:33.201Z,99.90
2018-09-28T03:42:00.934Z,99.90
2018-09-28T03:44:28.725Z,99.90
2018-09-28T03:46:56.449Z,99.90
2018-09-28T03:49:24.409Z,99.90
2018-09-28T03:51:52.521Z,99.90
2018-09-28T03:54:20.966Z,99.90
2018-09-28T03:56:48.692Z,99.90
2018-09-28T03:59:16.482Z,99.90
2018-09-28T04:01:44.198Z,99.90
2018-09-28T04:04:12.014Z,99.90
2018-09-28T04:06:39.762Z,99.90
2018-09-28T04:09:08.894Z,99.90
2018-09-28T04:11:36.797Z,99.90
2018-09-28T04:14:04.597Z,99.90
2018-09-28T04:16:32.397Z,99.90
2018-09-28T04:19:00.193Z,99.90
2018-09-28T04:21:27.930Z,99.90
2018-09-28T04:23:55.690Z,99.90
2018-09-28T04:26:23.493Z,99.90
2018-09-28T04:28:51.330Z,99.90
2018-09-28T04:31:19.066Z,99.90
2018-09-28T04:33:46.826Z,99.90
2018-09-28T04:36:14.546Z,99.90
2018-09-28T04:38:42.297Z,99.90
2018-09-28T04:41:10.074Z,99.90
2018-09-28T04:43:37.878Z,99.90
2018-09-28T04:46:05.641Z,99.90
2018-09-28T04:48:33.385Z,99.90
2018-09-28T04:51:01.117Z,99.90
2018-09-28T04:53:28.865Z,99.90
2018-09-28T04:55:56.649Z,99.90
2018-09-28T04:58:24.407Z,99.90
2018-09-28T05:00:52.250Z,99.90
2018-09-28T05:03:20.038Z,99.90
2018-09-28T05:05:47.759Z,99.90
2018-09-28T05:08:15.573Z,99.90
2018-09-28T05:10:43.316Z,99.90
2018-09-28T05:13:11.203Z,99.90
2018-09-28T05:15:39.021Z,99.90
2018-09-28T05:18:06.786Z,99.90
2018-09-28T05:20:34.869Z,99.90
2018-09-28T05:23:02.690Z,99.90
2018-09-28T05:25:30.415Z,99.90
2018-09-28T05:27:58.174Z,99.90
2018-09-28T05:30:25.902Z,99.90
2018-09-28T05:32:53.810Z,99.90
2018-09-28T05:35:21.441Z,99.90
2018-09-28T05:37:49.554Z,99.90
2018-09-28T05:40:17.355Z,99.90
2018-09-28T05:42:45.078Z,99.90
2018-09-28T05:45:12.837Z,99.90
2018-09-28T05:47:40.633Z,99.90
2018-09-28T05:50:08.394Z,99.90
2018-09-28T05:52:36.598Z,99.90
2018-09-28T05:55:04.369Z,99.90
2018-09-28T05:57:32.082Z,99.90
2018-09-28T06:00:05.321Z,99.90
2018-09-28T06:02:38.457Z,99.90
2018-09-28T06:05:11.611Z,99.90
2018-09-28T06:07:39.334Z,99.90
2018-09-28T06:10:07.054Z,99.90
2018-09-28T06:12:34.854Z,99.90
2018-09-28T06:15:02.614Z,99.90
2018-09-28T06:17:30.393Z,99.90
2018-09-28T06:19:58.152Z,99.90
2018-09-28T06:22:25.930Z,99.90
2018-09-28T06:24:53.645Z,99.90
2018-09-28T06:27:21.439Z,99.90
2018-09-28T06:29:49.212Z,99.90
2018-09-28T06:32:17.102Z,99.90
2018-09-28T06:34:44.826Z,99.90
2018-09-28T06:37:12.601Z,99.90
2018-09-28T06:39:40.383Z,99.90
2018-09-28T06:42:08.200Z,99.90
2018-09-28T06:44:35.918Z,99.90
2018-09-28T06:47:03.721Z,99.90
2018-09-28T06:49:31.443Z,99.90
2018-09-28T06:51:59.233Z,99.90
2018-09-28T06:54:26.978Z,98.60
2018-09-28T06:56:55.097Z,97.40
2018-09-28T06:59:22.845Z,95.00
2018-09-28T07:01:50.590Z,94.60
2018-09-28T07:04:18.339Z,94.60
2018-09-28T07:06:46.102Z,92.90
2018-09-28T07:09:14.158Z,92.40
2018-09-28T07:11:42.139Z,91.00
2018-09-28T07:14:10.741Z,87.00
2018-09-28T07:16:38.778Z,86.10
2018-09-28T07:19:06.682Z,86.40
2018-09-28T07:21:34.508Z,83.50
2018-09-28T07:24:02.305Z,82.90
2018-09-28T07:26:30.078Z,81.60
2018-09-28T07:28:57.806Z,83.50
2018-09-28T07:31:25.558Z,83.80
2018-09-28T07:33:53.462Z,84.50
2018-09-28T07:36:21.356Z,80.60
2018-09-28T07:38:49.025Z,84.60
2018-09-28T07:41:16.741Z,78.10
2018-09-28T07:43:44.561Z,77.00
2018-09-28T07:46:12.369Z,76.20
2018-09-28T07:48:40.289Z,74.60
2018-09-28T07:51:08.028Z,78.60
2018-09-28T07:53:35.794Z,78.60
2018-09-28T07:56:03.564Z,80.20
2018-09-28T07:58:32.071Z,86.30
2018-09-28T08:00:59.821Z,84.00
2018-09-28T08:03:28.817Z,81.40
2018-09-28T08:05:57.769Z,80.10
2018-09-28T08:08:25.537Z,78.40
2018-09-28T08:10:53.310Z,78.60
2018-09-28T08:13:21.385Z,73.70
2018-09-28T08:15:49.171Z,72.80
2018-09-28T08:18:17.842Z,74.40
2018-09-28T08:20:45.779Z,72.40
2018-09-28T08:23:13.568Z,70.70
2018-09-28T08:25:41.326Z,70.80
2018-09-28T08:28:09.113Z,67.50
2018-09-28T08:30:36.952Z,66.70
2018-09-28T08:33:04.687Z,67.00
2018-09-28T08:35:32.436Z,67.30
2018-09-28T08:38:00.217Z,61.70
2018-09-28T08:40:27.929Z,62.50
2018-09-28T08:42:55.686Z,60.70
2018-09-28T08:45:23.429Z,66.60
2018-09-28T08:47:51.186Z,65.10
2018-09-28T08:50:18.994Z,66.80
2018-09-28T08:52:46.757Z,62.20
2018-09-28T08:55:14.646Z,63.60
2018-09-28T08:57:42.397Z,65.20
2018-09-28T09:00:10.167Z,65.70
2018-09-28T09:02:37.917Z,63.00
2018-09-28T09:05:05.697Z,59.00
2018-09-28T09:07:33.445Z,62.30
2018-09-28T09:10:01.226Z,60.40
2018-09-28T09:12:28.970Z,58.60
2018-09-28T09:14:56.742Z,59.20
2018-09-28T09:17:24.514Z,58.80
2018-09-28T09:19:52.273Z,59.10
2018-09-28T09:22:20.041Z,61.90
2018-09-28T09:24:47.813Z,64.30
2018-09-28T09:27:15.613Z,63.50
2018-09-28T09:29:43.865Z,64.90
2018-09-28T09:32:11.584Z,63.10
2018-09-28T09:34:39.349Z,63.90
2018-09-28T09:37:07.087Z,61.10
2018-09-28T09:39:34.889Z,59.90
2018-09-28T09:42:02.641Z,59.00
2018-09-28T09:44:30.425Z,58.40
2018-09-28T09:46:58.153Z,54.20
2018-09-28T09:49:25.901Z,56.50
2018-09-28T09:51:53.637Z,60.70
2018-09-28T09:54:21.386Z,60.70
2018-09-28T09:56:49.116Z,62.00
2018-09-28T09:59:16.946Z,66.40
2018-09-28T10:01:50.195Z,61.00
2018-09-28T10:04:17.954Z,56.40
2018-09-28T10:06:46.126Z,56.20
2018-09-28T10:09:14.717Z,53.00
2018-09-28T10:11:42.634Z,53.70
2018-09-28T10:14:10.627Z,51.00
2018-09-28T10:16:38.373Z,52.10
2018-09-28T10:19:06.512Z,50.30
2018-09-28T10:21:34.238Z,49.50
2018-09-28T10:24:02.033Z,49.90
2018-09-28T10:26:29.778Z,50.90
2018-09-28T10:28:57.617Z,51.70
2018-09-28T10:31:25.361Z,51.80
2018-09-28T10:33:53.124Z,49.70
2018-09-28T10:36:21.482Z,51.30
2018-09-28T10:38:49.206Z,51.00
2018-09-28T10:41:17.070Z,50.40
2018-09-28T10:43:44.953Z,50.00
2018-09-28T10:46:12.772Z,48.70
2018-09-28T10:48:40.506Z,50.40
2018-09-28T10:51:08.327Z,52.30
2018-09-28T10:53:36.091Z,51.90
2018-09-28T10:56:03.857Z,52.40
2018-09-28T10:58:31.634Z,52.40
2018-09-28T11:00:59.402Z,53.40
2018-09-28T11:03:27.221Z,54.70
2018-09-28T11:05:54.945Z,53.90
2018-09-28T11:08:22.723Z,54.90
2018-09-28T11:10:50.506Z,54.40
2018-09-28T11:13:18.253Z,55.90
2018-09-28T11:15:46.782Z,55.10
2018-09-28T11:18:14.486Z,55.90
2018-09-28T11:20:42.930Z,56.90
2018-09-28T11:23:10.655Z,54.90
2018-09-28T11:25:38.418Z,55.40
2018-09-28T11:28:06.142Z,55.40
2018-09-28T11:30:34.293Z,54.50
2018-09-28T11:33:02.013Z,55.60
2018-09-28T11:35:29.785Z,55.20
2018-09-28T11:37:57.557Z,55.90
2018-09-28T11:40:25.961Z,54.50
2018-09-28T11:42:54.282Z,54.10
2018-09-28T11:45:22.113Z,54.70
2018-09-28T11:47:49.818Z,54.10
2018-09-28T11:50:17.570Z,54.10
2018-09-28T11:52:45.317Z,53.80
2018-09-28T11:55:13.077Z,53.90
2018-09-28T11:57:41.294Z,54.40
2018-09-28T12:00:09.743Z,54.30
2018-09-28T12:02:37.461Z,55.30
2018-09-28T12:05:05.243Z,55.20
2018-09-28T12:07:32.971Z,55.00
2018-09-28T12:10:00.694Z,55.50
2018-09-28T12:12:28.467Z,55.20
2018-09-28T12:14:56.225Z,55.50
2018-09-28T12:17:24.257Z,55.30
2018-09-28T12:19:51.997Z,56.50
2018-09-28T12:22:19.798Z,56.70
2018-09-28T12:24:47.617Z,56.50
2018-09-28T12:27:15.345Z,57.00
2018-09-28T12:29:43.102Z,56.60
2018-09-28T12:32:10.897Z,57.20
2018-09-28T12:34:39.133Z,56.70
2018-09-28T12:37:06.885Z,58.00
2018-09-28T12:39:34.632Z,56.80
2018-09-28T12:42:02.367Z,57.60
2018-09-28T12:44:30.194Z,57.30
2018-09-28T12:46:57.902Z,58.90
2018-09-28T12:49:25.653Z,57.90
2018-09-28T12:51:53.537Z,58.90
2018-09-28T12:54:21.296Z,58.80
2018-09-28T12:56:49.156Z,58.70
2018-09-28T12:59:16.845Z,59.50
2018-09-28T13:01:44.653Z,59.50
2018-09-28T13:04:18.361Z,58.80
2018-09-28T13:06:47.345Z,58.90
2018-09-28T13:09:15.070Z,59.30
2018-09-28T13:11:42.813Z,59.60
2018-09-28T13:14:11.496Z,58.70
2018-09-28T13:16:39.542Z,58.80
2018-09-28T13:19:07.417Z,59.10
2018-09-28T13:21:35.232Z,58.80
2018-09-28T13:24:02.983Z,58.40
2018-09-28T13:26:30.847Z,59.00
2018-09-28T13:28:58.632Z,58.20
2018-09-28T13:31:26.657Z,57.60
2018-09-28T13:33:54.483Z,58.50
2018-09-28T13:36:23.301Z,57.70
2018-09-28T13:38:51.102Z,59.00
2018-09-28T13:41:18.785Z,59.40
2018-09-28T13:43:47.090Z,58.20
2018-09-28T13:46:14.900Z,58.90
2018-09-28T13:48:44.010Z,58.90
2018-09-28T13:51:11.725Z,59.40
2018-09-28T13:53:41.083Z,60.00
2018-09-28T13:56:08.838Z,59.30
2018-09-28T13:58:36.587Z,59.40
2018-09-28T14:01:04.349Z,61.20
2018-09-28T14:03:32.151Z,60.00
2018-09-28T14:05:59.890Z,59.40
2018-09-28T14:08:27.681Z,59.40
2018-09-28T14:10:55.402Z,61.40
2018-09-28T14:13:23.190Z,61.00
2018-09-28T14:15:51.521Z,61.00
2018-09-28T14:18:19.374Z,62.50
2018-09-28T14:20:47.132Z,62.00
2018-09-28T14:23:14.821Z,61.30
2018-09-28T14:25:42.556Z,62.10
2018-09-28T14:28:10.334Z,61.30
2018-09-28T14:30:38.091Z,62.00
2018-09-28T14:33:05.833Z,62.80
2018-09-28T14:35:33.554Z,62.60
2018-09-28T14:38:01.306Z,63.20
2018-09-28T14:40:29.110Z,62.30
2018-09-28T14:42:56.860Z,63.40
2018-09-28T14:45:24.590Z,62.70
2018-09-28T14:47:52.354Z,62.20
2018-09-28T14:50:20.152Z,62.50
2018-09-28T14:52:47.933Z,62.30
2018-09-28T14:55:15.654Z,63.10
2018-09-28T14:57:43.406Z,63.60
2018-09-28T15:00:11.238Z,63.50
2018-09-28T15:02:39.048Z,63.60
2018-09-28T15:05:07.154Z,62.30
2018-09-28T15:07:35.051Z,61.40
2018-09-28T15:10:02.778Z,61.40
2018-09-28T15:12:30.577Z,60.50
2018-09-28T15:14:59.414Z,58.80
2018-09-28T15:17:27.318Z,59.30
2018-09-28T15:19:55.073Z,59.10
2018-09-28T15:22:22.821Z,58.90
2018-09-28T15:24:51.491Z,59.10
2018-09-28T15:27:25.028Z,58.90
2018-09-28T15:29:53.205Z,59.00
2018-09-28T15:32:23.157Z,59.10
2018-09-28T15:34:50.935Z,59.50
2018-09-28T15:37:18.709Z,59.30
2018-09-28T15:39:46.462Z,59.70
2018-09-28T15:42:14.247Z,59.70
2018-09-28T15:44:41.965Z,59.10
2018-09-28T15:47:09.717Z,59.40
2018-09-28T15:49:37.523Z,59.60
2018-09-28T15:52:05.315Z,59.20
2018-09-28T15:54:33.575Z,58.80
2018-09-28T15:57:01.427Z,58.40
2018-09-28T15:59:29.236Z,58.90
2018-09-28T16:01:59.618Z,59.00
2018-09-28T16:04:27.594Z,58.80
2018-09-28T16:06:55.338Z,59.30
2018-09-28T16:09:23.116Z,59.60
2018-09-28T16:11:50.867Z,60.20
2018-09-28T16:14:18.855Z,60.30
2018-09-28T16:16:48.437Z,60.30
2018-09-28T16:19:16.281Z,60.60
2018-09-28T16:21:46.333Z,60.50
2018-09-28T16:24:14.102Z,60.30
2018-09-28T16:26:41.969Z,60.30
2018-09-28T16:29:09.762Z,61.00
2018-09-28T16:31:38.126Z,63.00
2018-09-28T16:34:05.909Z,60.20
2018-09-28T16:36:34.346Z,60.70
2018-09-28T16:39:02.142Z,60.10
2018-09-28T16:41:29.882Z,62.50
2018-09-28T16:43:59.701Z,61.80
2018-09-28T16:46:27.733Z,60.50
2018-09-28T16:48:55.645Z,60.30
2018-09-28T16:51:24.607Z,61.00
2018-09-28T16:53:52.381Z,61.90
2018-09-28T16:56:20.152Z,61.60
2018-09-28T16:58:48.513Z,62.20
2018-09-28T17:01:16.317Z,62.40
2018-09-28T17:03:44.222Z,62.70
2018-09-28T17:06:12.086Z,62.20
2018-09-28T17:08:40.705Z,62.70
2018-09-28T17:11:09.729Z,63.30
2018-09-28T17:13:37.904Z,62.70
2018-09-28T17:16:06.216Z,63.60
2018-09-28T17:18:35.842Z,61.10
2018-09-28T17:21:03.945Z,62.50
2018-09-28T17:23:32.882Z,61.60
2018-09-28T17:26:02.100Z,60.60
2018-09-28T17:28:31.130Z,60.30
2018-09-28T17:30:59.957Z,61.80
2018-09-28T17:33:29.596Z,61.40
2018-09-28T17:35:58.307Z,62.60
2018-09-28T17:38:26.769Z,62.00
2018-09-28T17:40:56.025Z,61.90
2018-09-28T17:43:24.345Z,63.10
2018-09-28T17:45:53.990Z,62.50
2018-09-28T17:48:23.350Z,64.00
2018-09-28T17:50:51.914Z,62.20
2018-09-28T17:53:22.033Z,62.60
2018-09-28T17:55:50.674Z,64.20
2018-09-28T17:58:19.319Z,62.90
2018-09-28T18:00:48.478Z,63.60
2018-09-28T18:03:16.516Z,62.20
2018-09-28T18:05:44.625Z,62.00
2018-09-28T18:08:13.714Z,62.80
2018-09-28T18:10:42.498Z,63.30
2018-09-28T18:13:10.952Z,62.50
2018-09-28T18:15:38.766Z,62.70
2018-09-28T18:18:07.896Z,62.70
2018-09-28T18:20:36.233Z,63.20
2018-09-28T18:23:04.637Z,62.40
2018-09-28T18:25:33.942Z,62.90
2018-09-28T18:28:03.950Z,62.80
2018-09-28T18:30:33.197Z,61.90
2018-09-28T18:33:03.343Z,62.80
2018-09-28T18:35:31.818Z,62.40
2018-09-28T18:38:01.224Z,62.10
2018-09-28T18:40:29.936Z,62.20
2018-09-28T18:42:57.668Z,61.70
2018-09-28T18:45:25.451Z,62.50
2018-09-28T18:47:54.221Z,61.90
2018-09-28T18:50:21.973Z,62.50
2018-09-28T18:52:49.713Z,61.40
2018-09-28T18:55:17.782Z,62.40
2018-09-28T18:57:45.521Z,62.50
2018-09-28T19:00:13.362Z,61.80
2018-09-28T19:02:41.125Z,62.10
2018-09-28T19:05:09.033Z,62.50
2018-09-28T19:07:36.750Z,63.80
2018-09-28T19:10:04.547Z,65.30
2018-09-28T19:12:32.364Z,67.40
2018-09-28T19:15:00.687Z,68.00
2018-09-28T19:17:28.958Z,68.90
2018-09-28T19:19:56.706Z,69.50
2018-09-28T19:22:24.493Z,71.70
2018-09-28T19:24:52.247Z,73.80
2018-09-28T19:27:21.529Z,79.10
2018-09-28T19:29:50.208Z,83.20
2018-09-28T19:32:18.672Z,87.90
2018-09-28T19:34:47.664Z,91.00
2018-09-28T19:37:16.990Z,92.40
2018-09-28T19:39:46.991Z,93.80
2018-09-28T19:42:16.030Z,95.00
2018-09-28T19:44:44.531Z,96.10
2018-09-28T19:47:13.821Z,97.30
2018-09-28T19:49:43.009Z,98.50
2018-09-28T19:52:10.769Z,99.60
2018-09-28T19:54:39.554Z,99.90
2018-09-28T19:57:08.485Z,99.90
2018-09-28T19:59:37.572Z,99.90
2018-09-28T20:02:06.824Z,99.90
2018-09-28T20:04:36.319Z,99.90
2018-09-28T20:07:05.435Z,99.90
2018-09-28T20:09:34.596Z,99.90
2018-09-28T20:12:04.693Z,99.90
2018-09-28T20:14:34.296Z,99.90
2018-09-28T20:17:02.161Z,99.90
2018-09-28T20:19:31.358Z,99.90
2018-09-28T20:22:00.649Z,99.90
2018-09-28T20:24:29.408Z,99.90
2018-09-28T20:26:57.189Z,99.90
2018-09-28T20:29:26.287Z,99.90
2018-09-28T20:31:54.109Z,99.90
2018-09-28T20:34:23.463Z,99.90
2018-09-28T20:36:52.484Z,99.90
2018-09-28T20:39:22.999Z,99.90
2018-09-28T20:41:52.337Z,99.90
2018-09-28T20:44:21.689Z,99.90
2018-09-28T20:46:49.418Z,99.90
2018-09-28T20:49:17.434Z,99.90
2018-09-28T20:51:45.205Z,99.90
2018-09-28T20:54:13.048Z,99.90
2018-09-28T20:56:40.814Z,99.90
2018-09-28T20:59:08.577Z,99.90
2018-09-28T21:01:37.821Z,99.90
2018-09-28T21:04:05.540Z,99.90
2018-09-28T21:06:33.262Z,99.90
2018-09-28T21:09:01.025Z,99.90
2018-09-28T21:11:28.791Z,99.90
2018-09-28T21:13:56.597Z,99.90
2018-09-28T21:16:24.349Z,99.90
2018-09-28T21:18:52.097Z,99.90
2018-09-28T21:21:19.899Z,99.90
2018-09-28T21:23:47.662Z,99.90
2018-09-28T21:26:15.416Z,99.90
2018-09-28T21:28:43.192Z,99.90
2018-09-28T21:31:11.126Z,99.90
2018-09-28T21:33:38.861Z,99.90
2018-09-28T21:36:06.674Z,99.90
2018-09-28T21:38:34.433Z,99.90
2018-09-28T21:41:02.173Z,99.90
2018-09-28T21:43:30.002Z,99.90
2018-09-28T21:45:57.772Z,99.90
2018-09-28T21:48:25.549Z,99.90
2018-09-28T21:50:53.372Z,99.90
2018-09-28T21:53:21.102Z,99.90
2018-09-28T21:55:48.869Z,99.90
2018-09-28T21:58:16.622Z,99.90
2018-09-28T22:00:44.437Z,99.90
2018-09-28T22:03:12.197Z,99.90
2018-09-28T22:05:39.926Z,99.90
2018-09-28T22:08:07.678Z,99.90
2018-09-28T22:10:35.393Z,99.90
2018-09-28T22:13:03.214Z,99.90
2018-09-28T22:15:30.977Z,99.90
2018-09-28T22:17:58.909Z,99.90
2018-09-28T22:20:26.648Z,99.90
2018-09-28T22:22:54.487Z,99.90
2018-09-28T22:25:22.221Z,99.90
2018-09-28T22:27:50.017Z,99.90
2018-09-28T22:30:17.969Z,99.90
2018-09-28T22:32:46.314Z,99.90
2018-09-28T22:35:14.085Z,99.90
2018-09-28T22:37:42.438Z,99.90
2018-09-28T22:40:10.202Z,99.90
2018-09-28T22:42:38.609Z,99.90
2018-09-28T22:45:06.402Z,99.90
2018-09-28T22:47:34.185Z,99.90
2018-09-28T22:50:01.919Z,99.90
2018-09-28T22:52:29.802Z,99.90
2018-09-28T22:54:57.572Z,99.90
2018-09-28T22:57:25.321Z,99.90
2018-09-28T22:59:53.093Z,99.90
2018-09-28T23:02:20.888Z,99.90
2018-09-28T23:04:48.722Z,99.90
2018-09-28T23:07:16.589Z,99.90
2018-09-28T23:09:44.350Z,99.90
2018-09-28T23:12:12.078Z,99.90
2018-09-28T23:14:39.894Z,99.90
2018-09-28T23:17:07.764Z,99.90
2018-09-28T23:19:35.661Z,99.90
2018-09-28T23:22:03.456Z,99.90
2018-09-28T23:24:31.209Z,99.90
2018-09-28T23:26:58.928Z,99.90
2018-09-28T23:29:26.703Z,99.90
2018-09-28T23:31:54.442Z,99.90
2018-09-28T23:34:22.284Z,99.90
2018-09-28T23:36:50.041Z,99.90
2018-09-28T23:39:17.783Z,99.90
2018-09-28T23:41:45.526Z,99.90
2018-09-28T23:44:13.318Z,99.90
2018-09-28T23:46:41.118Z,99.90
2018-09-28T23:49:08.906Z,99.90
2018-09-28T23:51:36.673Z,99.90
2018-09-28T23:54:04.409Z,99.90
2018-09-28T23:56:32.179Z,99.90
2018-09-28T23:58:59.927Z,99.90
